createdAt,value
2022-10-08T00:00:08.981Z,73.54
2022-10-08T00:01:08.980Z,73.54
2022-10-08T00:02:09.066Z,73.13
2022-10-08T00:03:08.950Z,73.23
2022-10-08T00:04:09.002Z,73.54
2022-10-08T00:05:08.926Z,73.54
2022-10-08T00:06:08.927Z,73.26
2022-10-08T00:07:08.920Z,73.67
2022-10-08T00:08:08.894Z,73.57
2022-10-08T00:09:08.889Z,73.54
2022-10-08T00:10:08.892Z,73.57
2022-10-08T00:11:08.874Z,73.47
2022-10-08T00:12:08.849Z,73.57
2022-10-08T00:13:08.838Z,73.67
2022-10-08T00:14:08.829Z,73.57
2022-10-08T00:15:08.816Z,73.77
2022-10-08T00:16:08.851Z,73.88
2022-10-08T00:17:08.794Z,73.97
2022-10-08T00:18:08.783Z,73.67
2022-10-08T00:19:08.772Z,73.97
2022-10-08T00:20:08.764Z,73.97
2022-10-08T00:21:08.761Z,74.28
2022-10-08T00:22:08.742Z,74.08
2022-10-08T00:23:08.728Z,74.18
2022-10-08T00:24:08.723Z,74.28
2022-10-08T00:25:08.707Z,74.28
2022-10-08T00:26:08.729Z,74.38
2022-10-08T00:27:08.685Z,74.38
2022-10-08T00:28:08.739Z,74.38
2022-10-08T00:29:08.664Z,74.38
2022-10-08T00:30:08.652Z,74.69
2022-10-08T00:31:08.732Z,74.58
2022-10-08T00:32:08.631Z,74.58
2022-10-08T00:33:08.618Z,74.69
2022-10-08T00:34:08.612Z,74.79
2022-10-08T00:35:08.597Z,74.90
2022-10-08T00:36:08.597Z,74.69
2022-10-08T00:37:08.577Z,74.79
2022-10-08T00:38:08.568Z,74.79
2022-10-08T00:39:08.555Z,74.79
2022-10-08T00:40:08.545Z,74.90
2022-10-08T00:41:08.544Z,75.10
2022-10-08T00:42:08.539Z,75.40
2022-10-08T00:43:08.510Z,75.20
2022-10-08T00:44:08.500Z,75.10
2022-10-08T00:45:08.486Z,75.30
2022-10-08T00:46:08.528Z,75.60
2022-10-08T00:47:08.465Z,75.10
2022-10-08T00:48:08.457Z,75.20
2022-10-08T00:49:08.446Z,75.30
2022-10-08T00:50:08.437Z,75.40
2022-10-08T00:51:08.433Z,75.60
2022-10-08T00:52:08.413Z,75.30
2022-10-08T00:53:08.400Z,75.40
2022-10-08T00:54:08.391Z,75.44
2022-10-08T00:55:08.382Z,75.64
2022-10-08T00:56:08.388Z,74.99
2022-10-08T00:57:08.361Z,75.13
2022-10-08T00:58:08.366Z,75.54
2022-10-08T00:59:08.335Z,75.64
2022-10-08T01:00:08.325Z,75.40
2022-10-08T01:01:08.471Z,75.54
2022-10-08T01:02:08.461Z,76.05
2022-10-08T01:03:08.296Z,75.95
2022-10-08T01:04:08.281Z,76.73
2022-10-08T01:05:08.279Z,76.53
2022-10-08T01:06:08.270Z,76.87
2022-10-08T01:07:08.245Z,77.07
2022-10-08T01:08:08.241Z,76.46
2022-10-08T01:09:08.225Z,76.87
2022-10-08T01:10:08.216Z,77.17
2022-10-08T01:11:08.222Z,77.44
2022-10-08T01:12:08.193Z,78.19
2022-10-08T01:13:08.180Z,77.75
2022-10-08T01:14:08.192Z,78.16
2022-10-08T01:15:08.158Z,78.46
2022-10-08T01:16:08.203Z,78.56
2022-10-08T01:17:08.141Z,78.46
2022-10-08T01:18:08.128Z,78.36
2022-10-08T01:19:08.121Z,78.42
2022-10-08T01:20:08.138Z,78.16
2022-10-08T01:21:08.105Z,78.26
2022-10-08T01:22:08.113Z,78.26
2022-10-08T01:23:08.112Z,77.95
2022-10-08T01:24:08.063Z,78.16
2022-10-08T01:25:08.052Z,78.05
2022-10-08T01:26:08.049Z,78.26
2022-10-08T01:27:08.031Z,78.12
2022-10-08T01:28:08.113Z,78.02
2022-10-08T01:29:08.006Z,78.12
2022-10-08T01:30:08.013Z,78.02
2022-10-08T01:31:08.034Z,78.02
2022-10-08T01:32:07.974Z,78.12
2022-10-08T01:33:07.960Z,78.02
2022-10-08T01:34:07.952Z,78.16
2022-10-08T01:35:07.946Z,78.12
2022-10-08T01:36:07.973Z,78.63
2022-10-08T01:37:07.926Z,78.26
2022-10-08T01:38:07.907Z,78.42
2022-10-08T01:39:07.930Z,78.63
2022-10-08T01:40:07.888Z,78.53
2022-10-08T01:41:07.886Z,78.63
2022-10-08T01:42:08.042Z,78.63
2022-10-08T01:43:07.852Z,78.83
2022-10-08T01:44:07.842Z,78.32
2022-10-08T01:45:07.831Z,78.63
2022-10-08T01:46:07.956Z,78.53
2022-10-08T01:47:07.815Z,78.83
2022-10-08T01:48:07.799Z,78.53
2022-10-08T01:49:07.790Z,78.63
2022-10-08T01:50:07.777Z,78.63
2022-10-08T01:51:07.778Z,78.53
2022-10-08T01:52:07.757Z,78.73
2022-10-08T01:53:07.745Z,78.42
2022-10-08T01:54:07.733Z,78.83
2022-10-08T01:55:07.723Z,78.93
2022-10-08T01:56:07.724Z,78.93
2022-10-08T01:57:07.701Z,79.03
2022-10-08T01:58:15.345Z,78.93
2022-10-08T01:59:07.676Z,79.14
2022-10-08T02:00:07.681Z,79.44
2022-10-08T02:01:07.759Z,79.24
2022-10-08T02:02:07.806Z,79.54
2022-10-08T02:03:07.634Z,79.24
2022-10-08T02:04:07.624Z,79.34
2022-10-08T02:05:07.612Z,79.44
2022-10-08T02:06:07.614Z,79.44
2022-10-08T02:07:07.725Z,79.14
2022-10-08T02:08:07.580Z,79.44
2022-10-08T02:09:07.569Z,79.20
2022-10-08T02:10:07.559Z,79.54
2022-10-08T02:11:07.569Z,79.44
2022-10-08T02:12:07.663Z,79.61
2022-10-08T02:13:07.523Z,79.75
2022-10-08T02:14:07.515Z,79.20
2022-10-08T02:15:07.503Z,79.34
2022-10-08T02:16:07.517Z,79.14
2022-10-08T02:17:07.481Z,79.20
2022-10-08T02:18:07.504Z,79.00
2022-10-08T02:19:07.459Z,79.00
2022-10-08T02:20:07.450Z,79.10
2022-10-08T02:21:07.450Z,78.93
2022-10-08T02:22:07.519Z,78.93
2022-10-08T02:23:07.420Z,79.30
2022-10-08T02:24:07.405Z,79.41
2022-10-08T02:25:07.394Z,79.61
2022-10-08T02:26:07.396Z,80.16
2022-10-08T02:27:07.464Z,80.02
2022-10-08T02:28:07.494Z,79.91
2022-10-08T02:29:07.350Z,80.22
2022-10-08T02:30:07.340Z,80.02
2022-10-08T02:31:07.341Z,80.02
2022-10-08T02:32:07.471Z,80.02
2022-10-08T02:33:07.307Z,80.22
2022-10-08T02:34:07.315Z,80.02
2022-10-08T02:35:07.287Z,80.11
2022-10-08T02:36:07.283Z,80.11
2022-10-08T02:37:07.344Z,80.11
2022-10-08T02:38:07.253Z,80.22
2022-10-08T02:39:07.242Z,80.11
2022-10-08T02:40:07.231Z,79.91
2022-10-08T02:41:07.230Z,79.91
2022-10-08T02:42:07.241Z,80.22
2022-10-08T02:43:07.198Z,79.91
2022-10-08T02:44:07.188Z,79.81
2022-10-08T02:45:07.175Z,80.02
2022-10-08T02:46:07.253Z,80.02
2022-10-08T02:47:07.184Z,80.02
2022-10-08T02:48:07.142Z,79.85
2022-10-08T02:49:07.133Z,80.02
2022-10-08T02:50:07.146Z,79.91
2022-10-08T02:51:07.118Z,79.95
2022-10-08T02:52:07.099Z,80.16
2022-10-08T02:53:07.088Z,80.26
2022-10-08T02:54:07.082Z,80.05
2022-10-08T02:55:07.078Z,80.05
2022-10-08T02:56:07.060Z,80.16
2022-10-08T02:57:09.523Z,79.85
2022-10-08T02:58:07.034Z,80.02
2022-10-08T02:59:07.025Z,80.05
2022-10-08T03:00:07.030Z,80.02
2022-10-08T03:01:07.064Z,79.95
2022-10-08T03:02:07.031Z,80.05
2022-10-08T03:03:06.979Z,80.16
2022-10-08T03:04:06.969Z,79.95
2022-10-08T03:05:06.971Z,80.46
2022-10-08T03:06:06.966Z,80.26
2022-10-08T03:07:07.010Z,80.05
2022-10-08T03:08:06.923Z,80.16
2022-10-08T03:09:06.931Z,80.42
2022-10-08T03:10:06.912Z,80.63
2022-10-08T03:11:06.889Z,80.36
2022-10-08T03:12:06.888Z,80.22
2022-10-08T03:13:06.868Z,80.32
2022-10-08T03:14:06.859Z,80.11
2022-10-08T03:15:06.857Z,80.42
2022-10-08T03:16:06.836Z,80.66
2022-10-08T03:17:06.825Z,80.56
2022-10-08T03:18:06.816Z,80.66
2022-10-08T03:19:06.803Z,80.46
2022-10-08T03:20:06.808Z,80.56
2022-10-08T03:21:06.784Z,80.36
2022-10-08T03:22:06.789Z,80.56
2022-10-08T03:23:06.772Z,80.36
2022-10-08T03:24:06.750Z,80.63
2022-10-08T03:25:06.751Z,80.66
2022-10-08T03:26:06.729Z,80.97
2022-10-08T03:27:06.746Z,80.87
2022-10-08T03:28:06.741Z,81.04
2022-10-08T03:29:06.700Z,81.07
2022-10-08T03:30:06.692Z,81.04
2022-10-08T03:31:06.855Z,81.07
2022-10-08T03:32:06.661Z,80.87
2022-10-08T03:33:06.652Z,81.13
2022-10-08T03:34:06.640Z,80.56
2022-10-08T03:35:06.638Z,80.83
2022-10-08T03:36:06.617Z,81.17
2022-10-08T03:37:06.607Z,81.07
2022-10-08T03:38:06.697Z,81.04
2022-10-08T03:39:06.586Z,81.07
2022-10-08T03:40:06.587Z,81.04
2022-10-08T03:41:06.576Z,81.13
2022-10-08T03:42:06.563Z,80.93
2022-10-08T03:43:06.541Z,80.97
2022-10-08T03:44:06.533Z,81.04
2022-10-08T03:45:06.531Z,81.04
2022-10-08T03:46:06.613Z,81.17
2022-10-08T03:47:06.503Z,81.13
2022-10-08T03:48:06.487Z,81.17
2022-10-08T03:49:06.478Z,80.83
2022-10-08T03:50:06.477Z,81.13
2022-10-08T03:51:06.462Z,81.27
2022-10-08T03:52:06.443Z,81.04
2022-10-08T03:53:06.433Z,80.97
2022-10-08T03:54:06.553Z,81.54
2022-10-08T03:55:06.425Z,81.13
2022-10-08T03:56:06.400Z,81.44
2022-10-08T03:57:06.468Z,81.44
2022-10-08T03:58:06.380Z,81.27
2022-10-08T03:59:06.381Z,81.38
2022-10-08T04:00:06.365Z,81.27
2022-10-08T04:01:06.371Z,81.38
2022-10-08T04:02:06.335Z,81.34
2022-10-08T04:03:06.417Z,81.68
2022-10-08T04:04:06.314Z,81.34
2022-10-08T04:05:06.314Z,81.65
2022-10-08T04:06:06.292Z,81.17
2022-10-08T04:07:06.281Z,81.34
2022-10-08T04:08:06.268Z,81.68
2022-10-08T04:09:06.261Z,81.04
2022-10-08T04:10:06.274Z,81.04
2022-10-08T04:11:06.238Z,81.13
2022-10-08T04:12:06.229Z,81.44
2022-10-08T04:13:06.215Z,81.13
2022-10-08T04:14:06.205Z,81.54
2022-10-08T04:15:06.211Z,81.24
2022-10-08T04:16:06.224Z,81.24
2022-10-08T04:17:06.171Z,81.44
2022-10-08T04:18:06.159Z,81.44
2022-10-08T04:19:06.154Z,81.54
2022-10-08T04:20:06.150Z,81.44
2022-10-08T04:21:06.129Z,81.44
2022-10-08T04:22:06.116Z,81.34
2022-10-08T04:23:06.106Z,81.34
2022-10-08T04:24:06.116Z,81.54
2022-10-08T04:25:06.097Z,81.34
2022-10-08T04:26:06.089Z,81.54
2022-10-08T04:27:06.064Z,81.44
2022-10-08T04:28:06.111Z,81.13
2022-10-08T04:29:06.053Z,81.34
2022-10-08T04:30:06.029Z,81.54
2022-10-08T04:31:06.119Z,81.54
2022-10-08T04:32:06.007Z,81.34
2022-10-08T04:33:05.996Z,80.93
2022-10-08T04:34:06.000Z,81.34
2022-10-08T04:35:05.975Z,81.38
2022-10-08T04:36:05.962Z,81.27
2022-10-08T04:37:06.053Z,81.58
2022-10-08T04:38:05.942Z,81.54
2022-10-08T04:39:05.952Z,81.54
2022-10-08T04:40:05.917Z,81.34
2022-10-08T04:41:05.910Z,81.38
2022-10-08T04:42:05.915Z,81.68
2022-10-08T04:43:05.888Z,81.04
2022-10-08T04:44:05.885Z,81.48
2022-10-08T04:45:05.867Z,81.58
2022-10-08T04:46:05.912Z,81.04
2022-10-08T04:47:05.846Z,81.38
2022-10-08T04:48:05.832Z,81.07
2022-10-08T04:49:05.837Z,81.58
2022-10-08T04:50:05.811Z,80.93
2022-10-08T04:51:10.027Z,81.24
2022-10-08T04:52:05.788Z,81.17
2022-10-08T04:53:05.778Z,81.27
2022-10-08T04:54:05.776Z,81.17
2022-10-08T04:55:05.757Z,81.13
2022-10-08T04:56:05.760Z,81.17
2022-10-08T04:57:05.736Z,81.07
2022-10-08T04:58:05.740Z,81.27
2022-10-08T04:59:05.726Z,81.48
2022-10-08T05:00:18.231Z,81.38
2022-10-08T05:01:06.690Z,81.38
2022-10-08T05:02:05.762Z,81.58
2022-10-08T05:03:05.707Z,81.27
2022-10-08T05:04:05.666Z,81.07
2022-10-08T05:05:05.647Z,81.58
2022-10-08T05:06:05.635Z,81.58
2022-10-08T05:07:05.630Z,80.97
2022-10-08T05:08:05.614Z,81.07
2022-10-08T05:09:05.615Z,81.07
2022-10-08T05:10:05.591Z,81.17
2022-10-08T05:11:05.584Z,80.87
2022-10-08T05:12:05.570Z,81.31
2022-10-08T05:13:05.604Z,81.11
2022-10-08T05:14:05.579Z,80.87
2022-10-08T05:15:05.538Z,81.21
2022-10-08T05:16:05.577Z,80.91
2022-10-08T05:17:05.518Z,81.11
2022-10-08T05:18:05.505Z,81.21
2022-10-08T05:19:05.596Z,81.11
2022-10-08T05:20:05.485Z,81.21
2022-10-08T05:21:05.476Z,81.41
2022-10-08T05:22:05.495Z,81.62
2022-10-08T05:23:05.456Z,81.62
2022-10-08T05:24:05.451Z,81.11
2022-10-08T05:25:05.432Z,81.21
2022-10-08T05:26:05.417Z,81.52
2022-10-08T05:27:05.436Z,81.41
2022-10-08T05:28:05.424Z,81.62
2022-10-08T05:29:05.402Z,81.41
2022-10-08T05:30:05.501Z,81.52
2022-10-08T05:31:05.442Z,81.93
2022-10-08T05:32:05.400Z,81.62
2022-10-08T05:33:05.355Z,81.62
2022-10-08T05:34:05.363Z,81.62
2022-10-08T05:35:05.348Z,81.41
2022-10-08T05:36:05.310Z,81.21
2022-10-08T05:37:05.301Z,81.21
2022-10-08T05:38:05.309Z,81.52
2022-10-08T05:39:05.317Z,81.11
2022-10-08T05:40:05.274Z,81.72
2022-10-08T05:41:05.274Z,81.11
2022-10-08T05:42:05.244Z,81.21
2022-10-08T05:43:05.288Z,81.41
2022-10-08T05:44:05.270Z,81.21
2022-10-08T05:45:05.260Z,81.72
2022-10-08T05:46:05.317Z,81.62
2022-10-08T05:47:05.194Z,81.68
2022-10-08T05:48:05.184Z,81.62
2022-10-08T05:49:05.185Z,81.72
2022-10-08T05:50:05.176Z,81.38
2022-10-08T05:51:05.147Z,81.52
2022-10-08T05:52:05.136Z,81.38
2022-10-08T05:53:09.088Z,81.38
2022-10-08T05:54:05.129Z,81.48
2022-10-08T05:55:05.110Z,81.79
2022-10-08T05:56:05.092Z,81.48
2022-10-08T05:57:05.094Z,81.48
2022-10-08T05:58:05.069Z,81.48
2022-10-08T05:59:05.074Z,80.97
2022-10-08T06:00:05.057Z,81.38
2022-10-08T06:01:05.038Z,81.17
2022-10-08T06:02:05.054Z,81.34
2022-10-08T06:03:05.075Z,81.17
2022-10-08T06:04:08.779Z,80.97
2022-10-08T06:05:05.143Z,81.04
2022-10-08T06:06:04.981Z,80.87
2022-10-08T06:07:04.973Z,81.07
2022-10-08T06:08:04.960Z,81.07
2022-10-08T06:09:04.967Z,81.04
2022-10-08T06:10:04.941Z,80.93
2022-10-08T06:11:04.933Z,81.07
2022-10-08T06:12:04.917Z,80.93
2022-10-08T06:13:04.929Z,80.93
2022-10-08T06:14:04.963Z,80.97
2022-10-08T06:15:04.887Z,81.17
2022-10-08T06:16:04.956Z,80.97
2022-10-08T06:17:04.888Z,80.93
2022-10-08T06:18:04.880Z,80.93
2022-10-08T06:19:05.111Z,80.83
2022-10-08T06:20:04.856Z,80.42
2022-10-08T06:21:04.820Z,80.52
2022-10-08T06:22:04.811Z,80.63
2022-10-08T06:23:04.836Z,80.52
2022-10-08T06:24:04.819Z,80.32
2022-10-08T06:25:04.817Z,80.42
2022-10-08T06:26:04.770Z,80.32
2022-10-08T06:27:04.761Z,80.52
2022-10-08T06:28:04.803Z,80.63
2022-10-08T06:29:04.744Z,80.42
2022-10-08T06:30:04.720Z,79.98
2022-10-08T06:31:04.794Z,79.94
2022-10-08T06:32:04.697Z,79.74
2022-10-08T06:33:04.688Z,78.92
2022-10-08T06:34:05.029Z,78.78
2022-10-08T06:35:04.666Z,78.38
2022-10-08T06:36:04.654Z,77.87
2022-10-08T06:37:04.647Z,77.87
2022-10-08T06:38:04.641Z,77.87
2022-10-08T06:39:04.657Z,77.97
2022-10-08T06:40:04.610Z,77.97
2022-10-08T06:41:04.636Z,78.01
2022-10-08T06:42:04.591Z,77.97
2022-10-08T06:43:04.582Z,77.97
2022-10-08T06:44:04.580Z,78.28
2022-10-08T06:45:04.575Z,78.28
2022-10-08T06:46:04.546Z,78.28
2022-10-08T06:47:04.582Z,78.04
2022-10-08T06:48:04.570Z,78.04
2022-10-08T06:49:04.515Z,76.88
2022-10-08T06:50:04.534Z,76.78
2022-10-08T06:51:04.523Z,76.58
2022-10-08T06:52:04.480Z,76.68
2022-10-08T06:53:04.482Z,76.37
2022-10-08T06:54:07.742Z,75.73
2022-10-08T06:55:04.452Z,75.73
2022-10-08T06:56:04.438Z,75.39
2022-10-08T06:57:04.427Z,75.19
2022-10-08T06:58:04.457Z,75.09
2022-10-08T06:59:04.407Z,74.88
2022-10-08T07:00:04.393Z,74.54
2022-10-08T07:01:04.429Z,73.46
2022-10-08T07:02:04.439Z,72.58
2022-10-08T07:03:04.382Z,71.00
2022-10-08T07:04:04.361Z,69.31
2022-10-08T07:05:04.345Z,67.63
2022-10-08T07:06:04.344Z,65.85
2022-10-08T07:07:04.320Z,64.81
2022-10-08T07:08:04.318Z,65.22
2022-10-08T07:09:04.297Z,64.54
2022-10-08T07:10:04.286Z,65.15
2022-10-08T07:11:04.275Z,65.35
2022-10-08T07:12:04.262Z,65.28
2022-10-08T07:13:04.272Z,65.38
2022-10-08T07:14:04.245Z,65.68
2022-10-08T07:15:04.232Z,66.02
2022-10-08T07:16:04.276Z,66.55
2022-10-08T07:17:04.210Z,66.55
2022-10-08T07:18:04.208Z,67.80
2022-10-08T07:19:04.192Z,67.63
2022-10-08T07:20:04.177Z,67.43
2022-10-08T07:21:04.168Z,68.23
2022-10-08T07:22:04.177Z,67.43
2022-10-08T07:23:04.159Z,68.67
2022-10-08T07:24:04.133Z,68.97
2022-10-08T07:25:04.125Z,69.34
2022-10-08T07:26:04.132Z,67.49
2022-10-08T07:27:04.105Z,66.79
2022-10-08T07:28:04.199Z,65.32
2022-10-08T07:29:04.085Z,63.95
2022-10-08T07:30:04.100Z,62.78
2022-10-08T07:31:04.107Z,61.41
2022-10-08T07:32:04.052Z,60.15
2022-10-08T07:33:04.066Z,59.42
2022-10-08T07:34:04.038Z,58.59
2022-10-08T07:35:04.017Z,57.89
2022-10-08T07:36:04.009Z,57.33
2022-10-08T07:37:03.996Z,56.90
2022-10-08T07:38:04.009Z,55.74
2022-10-08T07:39:04.093Z,55.52
2022-10-08T07:40:03.960Z,54.19
2022-10-08T07:41:03.952Z,53.44
2022-10-08T07:42:03.946Z,52.59
2022-10-08T07:43:03.942Z,51.17
2022-10-08T07:44:03.920Z,51.25
2022-10-08T07:45:03.908Z,50.43
2022-10-08T07:46:03.944Z,49.68
2022-10-08T07:47:03.888Z,48.76
2022-10-08T07:48:03.886Z,48.94
2022-10-08T07:49:03.865Z,47.62
2022-10-08T07:50:03.855Z,47.89
2022-10-08T07:51:03.845Z,46.58
2022-10-08T07:52:03.835Z,46.36
2022-10-08T07:53:03.840Z,46.26
2022-10-08T07:54:03.954Z,45.56
2022-10-08T07:55:03.809Z,45.45
2022-10-08T07:56:03.794Z,45.34
2022-10-08T07:57:03.784Z,45.23
2022-10-08T07:58:03.783Z,45.03
2022-10-08T07:59:03.763Z,44.71
2022-10-08T08:00:03.753Z,44.51
2022-10-08T08:01:03.863Z,44.41
2022-10-08T08:02:03.819Z,44.21
2022-10-08T08:03:03.734Z,43.52
2022-10-08T08:04:03.716Z,44.63
2022-10-08T08:05:03.701Z,45.27
2022-10-08T08:06:03.695Z,45.68
2022-10-08T08:07:03.705Z,45.39
2022-10-08T08:08:03.686Z,45.37
2022-10-08T08:09:03.698Z,44.77
2022-10-08T08:10:03.672Z,44.85
2022-10-08T08:11:03.652Z,44.73
2022-10-08T08:12:03.656Z,43.93
2022-10-08T08:13:03.646Z,43.93
2022-10-08T08:14:03.613Z,43.54
2022-10-08T08:15:03.600Z,43.91
2022-10-08T08:16:03.628Z,42.92
2022-10-08T08:17:03.598Z,43.52
2022-10-08T08:18:03.569Z,43.02
2022-10-08T08:19:03.560Z,44.43
2022-10-08T08:20:03.551Z,45.47
2022-10-08T08:21:03.540Z,45.63
2022-10-08T08:22:03.545Z,47.05
2022-10-08T08:23:03.520Z,46.95
2022-10-08T08:24:03.511Z,47.19
2022-10-08T08:25:03.499Z,47.71
2022-10-08T08:26:03.511Z,47.71
2022-10-08T08:27:03.494Z,48.63
2022-10-08T08:28:03.550Z,48.95
2022-10-08T08:29:03.456Z,49.35
2022-10-08T08:30:03.449Z,49.85
2022-10-08T08:31:03.450Z,49.48
2022-10-08T08:32:03.610Z,49.98
2022-10-08T08:33:03.419Z,50.67
2022-10-08T08:34:03.410Z,50.10
2022-10-08T08:35:03.396Z,50.92
2022-10-08T08:36:03.389Z,49.80
2022-10-08T08:37:03.400Z,49.70
2022-10-08T08:38:03.366Z,50.02
2022-10-08T08:39:03.359Z,49.82
2022-10-08T08:40:03.345Z,49.82
2022-10-08T08:41:03.332Z,49.82
2022-10-08T08:42:03.351Z,49.70
2022-10-08T08:43:03.311Z,49.30
2022-10-08T08:44:03.304Z,50.52
2022-10-08T08:45:03.291Z,50.84
2022-10-08T08:46:03.327Z,51.15
2022-10-08T08:47:03.352Z,51.45
2022-10-08T08:48:03.263Z,51.47
2022-10-08T08:49:03.252Z,51.87
2022-10-08T08:50:03.242Z,52.00
2022-10-08T08:51:03.230Z,52.69
2022-10-08T08:52:03.236Z,52.62
2022-10-08T08:53:03.210Z,53.02
2022-10-08T08:54:03.200Z,52.92
2022-10-08T08:55:03.188Z,53.22
2022-10-08T08:56:03.179Z,53.09
2022-10-08T08:57:03.178Z,52.49
2022-10-08T08:58:04.352Z,52.19
2022-10-08T08:59:03.147Z,53.22
2022-10-08T09:00:03.136Z,53.22
2022-10-08T09:01:03.217Z,52.49
2022-10-08T09:02:03.129Z,52.39
2022-10-08T09:03:03.103Z,52.59
2022-10-08T09:04:03.093Z,52.07
2022-10-08T09:05:03.166Z,51.45
2022-10-08T09:06:03.072Z,51.77
2022-10-08T09:07:03.072Z,51.87
2022-10-08T09:08:03.050Z,51.34
2022-10-08T09:09:03.068Z,51.25
2022-10-08T09:10:03.033Z,51.54
2022-10-08T09:11:03.017Z,51.04
2022-10-08T09:12:03.076Z,51.54
2022-10-08T09:13:02.996Z,51.25
2022-10-08T09:14:03.012Z,50.82
2022-10-08T09:15:02.975Z,50.90
2022-10-08T09:16:02.973Z,50.20
2022-10-08T09:17:03.031Z,50.52
2022-10-08T09:18:02.955Z,50.79
2022-10-08T09:19:02.960Z,49.87
2022-10-08T09:20:02.927Z,49.77
2022-10-08T09:21:02.922Z,49.75
2022-10-08T09:22:02.917Z,49.75
2022-10-08T09:23:02.902Z,49.38
2022-10-08T09:24:02.896Z,49.80
2022-10-08T09:25:02.911Z,51.42
2022-10-08T09:26:02.865Z,50.90
2022-10-08T09:27:02.937Z,50.79
2022-10-08T09:28:02.894Z,49.77
2022-10-08T09:29:02.859Z,50.82
2022-10-08T09:30:02.837Z,51.54
2022-10-08T09:31:08.056Z,52.59
2022-10-08T09:32:03.817Z,53.02
2022-10-08T09:33:02.811Z,52.72
2022-10-08T09:34:02.781Z,52.59
2022-10-08T09:35:02.773Z,53.22
2022-10-08T09:36:02.772Z,53.55
2022-10-08T09:37:02.758Z,53.34
2022-10-08T09:38:05.853Z,53.87
2022-10-08T09:39:02.725Z,54.27
2022-10-08T09:40:02.720Z,54.37
2022-10-08T09:41:02.710Z,54.37
2022-10-08T09:42:02.708Z,54.57
2022-10-08T09:43:02.684Z,54.47
2022-10-08T09:44:02.674Z,54.27
2022-10-08T09:45:02.673Z,54.17
2022-10-08T09:46:02.753Z,54.77
2022-10-08T09:47:02.672Z,54.27
2022-10-08T09:48:02.635Z,54.77
2022-10-08T09:49:02.623Z,55.17
2022-10-08T09:50:02.624Z,54.77
2022-10-08T09:51:02.635Z,55.17
2022-10-08T09:52:02.602Z,55.67
2022-10-08T09:53:02.577Z,55.50
2022-10-08T09:54:02.571Z,56.00
2022-10-08T09:55:02.556Z,56.33
2022-10-08T09:56:02.547Z,55.73
2022-10-08T09:57:02.547Z,56.05
2022-10-08T09:58:02.525Z,56.76
2022-10-08T09:59:02.514Z,57.41
2022-10-08T10:00:02.521Z,57.81
2022-10-08T10:01:02.531Z,58.24
2022-10-08T10:02:02.525Z,58.57
2022-10-08T10:03:02.470Z,58.75
2022-10-08T10:04:02.583Z,58.77
2022-10-08T10:05:02.470Z,59.78
2022-10-08T10:06:02.465Z,59.47
2022-10-08T10:07:02.439Z,59.50
2022-10-08T10:08:02.420Z,59.70
2022-10-08T10:09:02.417Z,60.00
2022-10-08T10:10:02.402Z,59.98
2022-10-08T10:11:02.399Z,60.71
2022-10-08T10:12:02.385Z,60.31
2022-10-08T10:13:02.363Z,60.81
2022-10-08T10:14:02.356Z,60.48
2022-10-08T10:15:02.341Z,59.34
2022-10-08T10:16:02.330Z,59.25
2022-10-08T10:17:02.383Z,58.51
2022-10-08T10:18:02.324Z,58.31
2022-10-08T10:19:02.294Z,58.42
2022-10-08T10:20:02.286Z,58.34
2022-10-08T10:21:02.275Z,58.24
2022-10-08T10:22:02.293Z,59.27
2022-10-08T10:23:02.258Z,59.47
2022-10-08T10:24:02.241Z,59.98
2022-10-08T10:25:02.231Z,60.00
2022-10-08T10:26:06.306Z,60.44
2022-10-08T10:27:02.222Z,60.24
2022-10-08T10:28:02.230Z,61.04
2022-10-08T10:29:02.209Z,61.24
2022-10-08T10:30:02.184Z,60.47
2022-10-08T10:31:02.286Z,61.27
2022-10-08T10:32:02.155Z,62.07
2022-10-08T10:33:02.141Z,61.67
2022-10-08T10:34:02.146Z,61.87
2022-10-08T10:35:02.119Z,61.87
2022-10-08T10:36:02.120Z,61.67
2022-10-08T10:37:02.097Z,61.80
2022-10-08T10:38:02.108Z,61.90
2022-10-08T10:39:02.082Z,62.81
2022-10-08T10:40:02.077Z,62.61
2022-10-08T10:41:02.071Z,62.51
2022-10-08T10:42:02.044Z,62.61
2022-10-08T10:43:02.034Z,62.41
2022-10-08T10:44:02.040Z,62.38
2022-10-08T10:45:02.010Z,62.10
2022-10-08T10:46:02.046Z,61.90
2022-10-08T10:47:02.000Z,62.10
2022-10-08T10:48:02.001Z,62.81
2022-10-08T10:49:01.970Z,63.04
2022-10-08T10:50:01.973Z,63.45
2022-10-08T10:51:01.959Z,63.34
2022-10-08T10:52:01.941Z,62.61
2022-10-08T10:53:01.923Z,62.41
2022-10-08T10:54:01.916Z,62.30
2022-10-08T10:55:01.904Z,62.81
2022-10-08T10:56:01.904Z,63.01
2022-10-08T10:57:01.882Z,63.01
2022-10-08T10:58:01.895Z,62.81
2022-10-08T10:59:01.861Z,63.04
2022-10-08T11:00:01.854Z,62.94
2022-10-08T11:01:01.985Z,63.45
2022-10-08T11:02:01.832Z,63.54
2022-10-08T11:03:01.967Z,63.27
2022-10-08T11:04:01.826Z,63.37
2022-10-08T11:05:02.299Z,63.47
2022-10-08T11:06:01.831Z,63.57
2022-10-08T11:07:01.781Z,64.07
2022-10-08T11:08:01.767Z,64.18
2022-10-08T11:09:01.757Z,64.28
2022-10-08T11:10:01.747Z,64.38
2022-10-08T11:11:01.776Z,64.38
2022-10-08T11:12:01.727Z,64.61
2022-10-08T11:13:01.729Z,64.51
2022-10-08T11:14:01.706Z,64.51
2022-10-08T11:15:01.700Z,64.51
2022-10-08T11:16:01.744Z,64.31
2022-10-08T11:17:01.673Z,64.41
2022-10-08T11:18:01.659Z,64.61
2022-10-08T11:19:01.676Z,64.72
2022-10-08T11:20:01.651Z,64.31
2022-10-08T11:21:01.637Z,64.41
2022-10-08T11:22:01.633Z,64.51
2022-10-08T11:23:01.604Z,65.01
2022-10-08T11:24:01.595Z,65.32
2022-10-08T11:25:01.596Z,65.35
2022-10-08T11:27:02.560Z,65.65
2022-10-08T11:28:01.611Z,64.95
2022-10-08T11:29:01.552Z,65.75
2022-10-08T11:30:01.560Z,65.75
2022-10-08T11:31:01.629Z,65.35
2022-10-08T11:32:01.520Z,65.25
2022-10-08T11:33:01.518Z,65.35
2022-10-08T11:34:01.486Z,65.35
2022-10-08T11:35:01.476Z,65.85
2022-10-08T11:36:01.478Z,65.85
2022-10-08T11:37:01.454Z,66.36
2022-10-08T11:38:01.465Z,67.16
2022-10-08T11:39:01.432Z,67.77
2022-10-08T11:40:01.424Z,68.81
2022-10-08T11:41:01.445Z,69.38
2022-10-08T11:42:01.402Z,71.03
2022-10-08T11:43:01.398Z,70.73
2022-10-08T11:44:01.385Z,71.84
2022-10-08T11:45:01.381Z,72.75
2022-10-08T11:46:01.437Z,72.78
2022-10-08T11:47:01.345Z,73.69
2022-10-08T11:48:01.336Z,74.09
2022-10-08T11:49:01.363Z,74.29
2022-10-08T11:50:01.315Z,74.90
2022-10-08T11:51:01.314Z,74.90
2022-10-08T11:52:01.292Z,75.34
2022-10-08T11:53:01.295Z,75.91
2022-10-08T11:54:01.293Z,75.84
2022-10-08T11:55:01.260Z,76.25
2022-10-08T11:56:01.261Z,76.35
2022-10-08T11:57:01.269Z,76.04
2022-10-08T11:58:09.383Z,76.35
2022-10-08T11:59:02.216Z,76.65
2022-10-08T12:00:07.821Z,76.35
2022-10-08T12:01:02.209Z,76.95
2022-10-08T12:02:01.247Z,76.55
2022-10-08T12:03:01.395Z,77.15
2022-10-08T12:04:01.162Z,77.26
2022-10-08T12:05:01.165Z,77.66
2022-10-08T12:06:01.154Z,77.76
2022-10-08T12:07:01.137Z,77.26
2022-10-08T12:08:01.128Z,76.55
2022-10-08T12:09:01.112Z,76.45
2022-10-08T12:10:01.121Z,76.15
2022-10-08T12:11:01.125Z,76.04
2022-10-08T12:12:01.077Z,76.01
2022-10-08T12:13:01.071Z,76.21
2022-10-08T12:14:01.059Z,76.11
2022-10-08T12:15:01.044Z,75.91
2022-10-08T12:16:01.080Z,75.51
2022-10-08T12:17:01.026Z,75.91
2022-10-08T12:18:01.039Z,75.87
2022-10-08T12:19:01.001Z,75.67
2022-10-08T12:20:00.993Z,75.27
2022-10-08T12:21:00.990Z,75.16
2022-10-08T12:22:00.968Z,75.37
2022-10-08T12:23:00.958Z,74.76
2022-10-08T12:24:00.946Z,74.87
2022-10-08T12:25:00.936Z,74.66
2022-10-08T12:26:00.987Z,74.43
2022-10-08T12:27:00.919Z,74.16
2022-10-08T12:28:00.997Z,74.22
2022-10-08T12:29:00.917Z,73.75
2022-10-08T12:30:00.896Z,73.65
2022-10-08T12:31:00.935Z,73.82
2022-10-08T12:32:00.875Z,73.92
2022-10-08T12:33:00.861Z,74.12
2022-10-08T12:34:00.845Z,74.02
2022-10-08T12:35:00.829Z,73.92
2022-10-08T12:36:00.874Z,74.02
2022-10-08T12:37:02.019Z,73.72
2022-10-08T12:38:00.801Z,73.52
2022-10-08T12:39:00.785Z,73.52
2022-10-08T12:40:00.783Z,73.42
2022-10-08T12:41:00.783Z,73.32
2022-10-08T12:42:00.783Z,73.11
2022-10-08T12:43:00.741Z,72.51
2022-10-08T12:44:00.731Z,72.71
2022-10-08T12:45:00.723Z,72.61
2022-10-08T12:46:00.715Z,71.84
2022-10-08T12:47:00.763Z,71.94
2022-10-08T12:48:00.687Z,71.44
2022-10-08T12:49:00.676Z,71.23
2022-10-08T12:50:00.665Z,72.14
2022-10-08T12:51:00.663Z,72.34
2022-10-08T12:52:00.644Z,71.64
2022-10-08T12:53:00.634Z,71.84